Time;durP1;ratioP1;P1;durP2;ratioP2;P2;SDS_P1;SDS_P2;PMS_P1;PMS_P2;Temp;Humidity;BMP_temperature;BMP_pressure;BME280_temperature;BME280_humidity;BME280_pressure;Samples;Min_cycle;Max_cycle;Signal;HPM_P1;HPM_P2
2022/08/30 00:01:11;;;;;;;36.70;34.43;;;17.30;99.90;;;;;;5057521;28;20270;-80
2022/08/30 00:03:44;;;;;;;37.07;34.80;;;17.30;99.90;;;;;;5057902;28;20175;-81
2022/08/30 00:06:18;;;;;;;38.17;35.77;;;17.20;99.90;;;;;;5057459;28;20185;-81
2022/08/30 00:08:45;;;;;;;37.40;34.70;;;17.20;99.90;;;;;;5066634;28;20248;-80
2022/08/30 00:11:14;;;;;;;34.70;32.00;;;17.20;99.90;;;;;;5073107;28;20262;-80
2022/08/30 00:13:43;;;;;;;31.23;29.10;;;17.20;99.90;;;;;;5062072;28;20182;-81
2022/08/30 00:16:11;;;;;;;27.73;26.07;;;17.20;99.90;;;;;;5053249;28;20277;-80
2022/08/30 00:18:37;;;;;;;20.67;19.27;;;17.20;99.90;;;;;;5035282;28;20242;-80
2022/08/30 00:21:04;;;;;;;20.17;18.87;;;17.10;99.90;;;;;;5046485;28;20179;-79
2022/08/30 00:23:32;;;;;;;18.57;17.37;;;17.10;99.90;;;;;;5047297;28;20179;-80
2022/08/30 00:25:58;;;;;;;18.97;17.63;;;17.00;99.90;;;;;;5054181;28;20662;-80
2022/08/30 00:28:24;;;;;;;19.03;17.57;;;16.90;99.90;;;;;;5053910;28;20206;-80
2022/08/30 00:30:50;;;;;;;19.17;17.87;;;16.90;99.90;;;;;;5054374;28;20332;-80
2022/08/30 00:33:16;;;;;;;19.30;18.03;;;16.80;99.90;;;;;;5043817;28;20266;-80
2022/08/30 00:35:43;;;;;;;101.43;95.00;;;16.80;99.90;;;;;;5034032;28;20711;-80
2022/08/30 00:38:11;;;;;;;118.53;111.33;;;16.70;99.90;;;;;;5043786;28;20206;-80
2022/08/30 00:40:40;;;;;;;393.70;369.37;;;16.60;99.90;;;;;;5054501;28;20178;-80
2022/08/30 00:43:09;;;;;;;381.53;357.67;;;16.60;99.90;;;;;;5046257;28;20179;-80
2022/08/30 00:45:36;;;;;;;353.43;332.87;;;16.50;99.90;;;;;;5038471;28;20178;-80
2022/08/30 00:48:04;;;;;;;246.30;232.30;;;16.50;99.90;;;;;;5047321;28;20187;-80
2022/08/30 00:50:55;;;;;;;252.50;238.40;;;16.60;99.90;;;;;;5037889;28;20660;-80
2022/08/30 00:53:27;;;;;;;155.53;146.93;;;16.60;99.90;;;;;;5050927;28;20182;-80
2022/08/30 00:55:54;;;;;;;140.47;132.70;;;16.60;99.90;;;;;;5053948;28;20191;-80
2022/08/30 00:58:25;;;;;;;204.27;193.37;;;16.60;99.90;;;;;;5053136;28;20214;-80
2022/08/30 01:00:54;;;;;;;140.97;133.00;;;16.50;99.90;;;;;;5056491;28;20194;-80
2022/08/30 01:03:20;;;;;;;86.07;81.47;;;16.40;99.90;;;;;;5059281;28;20179;-80
2022/08/30 01:05:48;;;;;;;65.03;61.57;;;16.40;99.90;;;;;;5054398;28;20190;-80
2022/08/30 01:08:14;;;;;;;77.73;72.80;;;16.30;99.90;;;;;;5052219;28;20182;-80
2022/08/30 01:10:41;;;;;;;46.43;43.50;;;16.30;99.90;;;;;;5054245;28;20174;-80
2022/08/30 01:13:08;;;;;;;28.10;25.97;;;16.30;99.90;;;;;;5041410;28;20175;-80
2022/08/30 01:15:34;;;;;;;21.03;19.57;;;16.30;99.90;;;;;;5033923;28;20218;-80
2022/08/30 01:18:01;;;;;;;26.77;24.73;;;16.30;99.90;;;;;;5032676;28;20309;-80
2022/08/30 01:21:09;;;;;;;22.87;20.90;;;16.30;99.90;;;;;;5035612;28;20600;-80
2022/08/30 01:23:40;;;;;;;22.20;20.57;;;16.20;99.90;;;;;;5049796;28;20185;-80
2022/08/30 01:26:06;;;;;;;20.90;19.10;;;16.10;99.90;;;;;;5053937;28;20182;-80
2022/08/30 01:28:33;;;;;;;17.07;15.77;;;16.10;99.90;;;;;;5053386;28;20293;-79
2022/08/30 01:31:00;;;;;;;23.63;21.87;;;16.10;99.90;;;;;;5052533;28;20589;-80
2022/08/30 01:33:26;;;;;;;26.43;24.27;;;16.00;99.90;;;;;;5038611;28;20182;-80
2022/08/30 01:36:01;;;;;;;22.80;20.90;;;16.10;99.90;;;;;;5035497;28;20219;-79
2022/08/30 01:38:33;;;;;;;19.33;17.87;;;16.10;99.90;;;;;;5047093;28;20214;-80
2022/08/30 01:41:07;;;;;;;17.83;16.40;;;16.10;99.90;;;;;;5038002;28;20186;-80
2022/08/30 01:43:34;;;;;;;19.60;18.30;;;16.00;99.90;;;;;;5048368;28;20173;-80
2022/08/30 01:46:01;;;;;;;16.90;15.37;;;16.00;99.90;;;;;;5054336;28;20178;-80
2022/08/30 01:48:27;;;;;;;11.30;10.40;;;16.00;99.90;;;;;;5053093;28;20228;-80
2022/08/30 01:50:54;;;;;;;14.03;13.03;;;16.00;99.90;;;;;;5052540;28;20839;-80
2022/08/30 01:53:20;;;;;;;13.87;12.67;;;16.00;99.90;;;;;;5042491;28;20182;-80
2022/08/30 01:55:47;;;;;;;12.40;11.50;;;15.90;99.90;;;;;;5049083;28;20200;-80
2022/08/30 01:58:13;;;;;;;16.40;13.63;;;16.00;99.90;;;;;;5051223;28;20757;-80
2022/08/30 02:00:39;;;;;;;13.03;11.93;;;16.00;99.90;;;;;;5054782;28;20174;-79
2022/08/30 02:03:05;;;;;;;13.30;12.20;;;15.90;99.90;;;;;;5064903;28;20179;-80
2022/08/30 02:05:31;;;;;;;14.53;13.13;;;16.00;99.90;;;;;;5057914;28;20178;-79
2022/08/30 02:07:57;;;;;;;14.67;13.20;;;15.90;99.90;;;;;;5050745;28;20224;-79
2022/08/30 02:10:24;;;;;;;13.33;12.13;;;15.90;99.90;;;;;;5052742;28;20206;-79
2022/08/30 02:12:50;;;;;;;14.77;13.13;;;15.80;99.90;;;;;;5047576;28;20179;-79
2022/08/30 02:15:17;;;;;;;11.80;10.90;;;15.70;99.90;;;;;;5039947;28;20183;-80
2022/08/30 02:17:43;;;;;;;13.03;11.97;;;15.60;99.90;;;;;;5033143;28;20214;-79
2022/08/30 02:20:09;;;;;;;15.97;14.70;;;15.60;99.90;;;;;;5032831;28;20195;-79
2022/08/30 02:22:36;;;;;;;18.07;14.50;;;15.60;99.90;;;;;;5034755;28;20215;-80
2022/08/30 02:25:06;;;;;;;15.17;14.03;;;15.60;99.90;;;;;;5052196;28;20175;-78
2022/08/30 02:27:32;;;;;;;12.07;11.07;;;15.60;99.90;;;;;;5051145;28;20182;-80
2022/08/30 02:29:58;;;;;;;14.50;13.30;;;15.50;99.90;;;;;;5051986;28;20209;-79
2022/08/30 02:32:24;;;;;;;21.03;19.40;;;15.50;99.90;;;;;;5050527;28;20186;-79
2022/08/30 02:34:50;;;;;;;19.37;18.07;;;15.50;99.90;;;;;;5035898;28;20189;-79
2022/08/30 02:37:16;;;;;;;23.70;22.27;;;15.40;99.90;;;;;;5032126;28;20190;-80
2022/08/30 02:39:41;;;;;;;25.93;24.33;;;15.40;99.90;;;;;;5032721;28;20229;-79
2022/08/30 02:42:07;;;;;;;29.93;27.50;;;15.40;99.90;;;;;;5032742;28;20183;-79
2022/08/30 02:44:33;;;;;;;27.83;26.03;;;15.40;99.90;;;;;;5033027;28;20249;-79
2022/08/30 02:46:59;;;;;;;29.97;28.07;;;15.40;99.90;;;;;;5031894;28;20660;-79
2022/08/30 02:49:25;;;;;;;28.50;26.60;;;15.40;99.90;;;;;;5032243;28;20644;-79
2022/08/30 02:51:51;;;;;;;29.47;27.77;;;15.40;99.90;;;;;;5031590;28;20209;-80
2022/08/30 02:54:18;;;;;;;31.67;29.63;;;15.30;99.90;;;;;;5049326;28;20175;-79
2022/08/30 02:56:49;;;;;;;34.00;31.83;;;15.30;99.90;;;;;;5054484;28;20178;-79
2022/08/30 02:59:16;;;;;;;33.63;31.70;;;15.30;99.90;;;;;;5061562;28;20214;-79
2022/08/30 03:01:42;;;;;;;31.23;29.23;;;15.20;99.90;;;;;;5059369;28;20175;-79
2022/08/30 03:04:08;;;;;;;28.30;26.60;;;15.20;99.90;;;;;;5048071;28;20198;-80
2022/08/30 03:06:35;;;;;;;26.47;24.67;;;15.20;99.90;;;;;;5058402;28;20193;-79
2022/08/30 03:09:00;;;;;;;22.37;20.87;;;15.20;99.90;;;;;;5053681;28;20297;-79
2022/08/30 03:11:27;;;;;;;17.63;16.43;;;15.20;99.90;;;;;;5056910;28;20213;-79
2022/08/30 03:13:52;;;;;;;18.90;17.50;;;15.20;99.90;;;;;;5056599;28;20284;-79
2022/08/30 03:16:20;;;;;;;16.37;15.07;;;15.10;99.90;;;;;;5041933;28;20226;-80
2022/08/30 03:18:46;;;;;;;18.23;17.03;;;15.10;99.90;;;;;;5054109;28;20590;-80
2022/08/30 03:21:14;;;;;;;16.67;15.17;;;15.10;99.90;;;;;;5055396;28;20179;-79
2022/08/30 03:23:41;;;;;;;26.77;24.90;;;15.00;99.90;;;;;;5054625;28;20175;-79
2022/08/30 03:26:11;;;;;;;22.77;21.07;;;15.00;99.90;;;;;;5055448;28;20170;-79
2022/08/30 03:28:37;;;;;;;23.40;21.50;;;15.00;99.90;;;;;;5039420;28;20209;-79
2022/08/30 03:31:04;;;;;;;29.27;27.17;;;15.00;99.90;;;;;;5042828;28;20187;-79
2022/08/30 03:33:30;;;;;;;37.20;35.00;;;15.00;99.90;;;;;;5047086;28;20183;-78
2022/08/30 03:35:56;;;;;;;22.53;21.00;;;15.00;99.90;;;;;;5054280;28;20189;-79
2022/08/30 03:38:23;;;;;;;39.17;36.77;;;14.90;99.90;;;;;;5053864;28;20222;-79
2022/08/30 03:40:48;;;;;;;39.93;37.67;;;14.80;99.90;;;;;;5056102;28;20178;-79
2022/08/30 03:43:14;;;;;;;25.17;23.20;;;14.80;99.90;;;;;;5056181;28;20342;-79
2022/08/30 03:45:41;;;;;;;26.00;24.33;;;14.80;99.90;;;;;;5059501;28;20186;-79
2022/08/30 03:48:07;;;;;;;24.93;23.03;;;14.90;99.90;;;;;;5061652;28;20182;-76
2022/08/30 03:50:35;;;;;;;25.37;23.30;;;14.90;99.90;;;;;;5042255;28;20195;-74
2022/08/30 03:53:02;;;;;;;19.70;18.20;;;14.90;99.90;;;;;;5034045;28;20245;-74
2022/08/30 03:55:28;;;;;;;23.93;21.67;;;15.00;99.90;;;;;;5035414;28;20179;-74
2022/08/30 03:57:55;;;;;;;17.53;16.30;;;15.00;99.90;;;;;;5050108;28;20202;-74
2022/08/30 04:00:21;;;;;;;18.93;17.50;;;14.90;99.90;;;;;;5052490;28;20194;-73
2022/08/30 04:02:47;;;;;;;18.97;17.50;;;14.80;99.90;;;;;;5052386;28;20273;-74
2022/08/30 04:05:13;;;;;;;18.90;17.63;;;14.80;99.90;;;;;;5051689;28;20208;-74
2022/08/30 04:07:39;;;;;;;23.70;21.97;;;14.80;99.90;;;;;;5051566;28;20178;-74
2022/08/30 04:10:07;;;;;;;16.33;14.70;;;14.80;99.90;;;;;;5052266;28;20275;-73
2022/08/30 04:12:33;;;;;;;22.80;20.73;;;14.70;99.90;;;;;;5051741;28;20244;-73
2022/08/30 04:14:59;;;;;;;20.80;18.70;;;14.70;99.90;;;;;;5052246;28;20657;-73
2022/08/30 04:17:25;;;;;;;17.43;16.10;;;14.70;99.90;;;;;;5051249;28;20213;-74
2022/08/30 04:19:51;;;;;;;17.23;16.13;;;14.70;99.90;;;;;;5050376;28;20222;-74
2022/08/30 04:22:17;;;;;;;24.57;22.83;;;14.70;99.90;;;;;;5050981;28;20182;-73
2022/08/30 04:24:43;;;;;;;20.50;18.97;;;14.70;99.90;;;;;;5068003;28;20162;-73
2022/08/30 04:27:09;;;;;;;21.90;20.40;;;14.60;99.90;;;;;;5050071;28;20188;-73
2022/08/30 04:29:35;;;;;;;20.87;18.93;;;14.60;99.90;;;;;;5051736;28;20202;-72
2022/08/30 04:32:01;;;;;;;19.53;17.83;;;14.60;99.90;;;;;;5051857;28;20651;-73
2022/08/30 04:34:27;;;;;;;17.93;16.53;;;14.60;99.90;;;;;;5051486;28;20182;-73
2022/08/30 04:36:53;;;;;;;20.83;19.13;;;14.60;99.90;;;;;;5051039;28;20244;-73
2022/08/30 04:39:19;;;;;;;21.67;19.87;;;14.60;99.90;;;;;;5051598;28;20214;-74
2022/08/30 04:41:45;;;;;;;21.07;19.57;;;14.60;99.90;;;;;;5051740;28;20178;-74
2022/08/30 04:44:11;;;;;;;20.73;19.07;;;14.60;99.90;;;;;;5051800;28;20194;-74
2022/08/30 04:46:37;;;;;;;25.97;24.23;;;14.60;99.90;;;;;;5051537;28;20186;-74
2022/08/30 04:49:04;;;;;;;21.20;19.50;;;14.60;99.90;;;;;;5048260;28;20305;-73
2022/08/30 04:51:30;;;;;;;24.13;22.27;;;14.60;99.90;;;;;;5050424;28;20563;-74
2022/08/30 04:53:55;;;;;;;21.37;19.97;;;14.60;99.90;;;;;;5050405;28;20179;-74
2022/08/30 04:56:22;;;;;;;18.57;17.07;;;14.60;99.90;;;;;;5050310;28;20193;-74
2022/08/30 04:58:50;;;;;;;18.10;16.80;;;14.60;99.90;;;;;;5050258;28;20222;-74
2022/08/30 05:01:20;;;;;;;14.70;13.30;;;14.70;99.90;;;;;;5051318;28;20178;-74
2022/08/30 05:03:48;;;;;;;12.53;11.43;;;14.80;99.90;;;;;;5049173;28;20316;-74
2022/08/30 05:06:15;;;;;;;15.60;14.30;;;14.90;99.90;;;;;;5039843;28;20222;-74
2022/08/30 05:08:41;;;;;;;41.83;39.13;;;14.90;99.90;;;;;;5045343;28;20282;-75
2022/08/30 05:11:08;;;;;;;82.03;77.53;;;15.00;99.90;;;;;;5038276;28;20262;-73
2022/08/30 05:13:34;;;;;;;107.73;101.73;;;15.00;99.90;;;;;;5039358;28;20196;-74
2022/08/30 05:16:00;;;;;;;33.60;31.57;;;15.10;99.90;;;;;;5032756;28;20249;-74
2022/08/30 05:18:26;;;;;;;26.03;24.10;;;15.30;99.90;;;;;;5029365;28;20210;-74
2022/08/30 05:21:16;;;;;;;16.37;14.87;;;15.50;99.90;;;;;;5032837;28;20189;-74
2022/08/30 05:23:43;;;;;;;41.37;38.63;;;15.70;99.90;;;;;;5034124;28;20194;-79
2022/08/30 05:26:16;;;;;;;16.77;15.23;;;15.90;99.90;;;;;;5033662;28;20525;-79
2022/08/30 05:28:42;;;;;;;22.53;20.73;;;16.00;99.90;;;;;;5033860;28;20299;-79
2022/08/30 05:31:18;;;;;;;18.20;16.77;;;16.30;99.90;;;;;;5032790;28;20186;-80
2022/08/30 05:33:46;;;;;;;19.17;17.47;;;16.50;99.90;;;;;;5033889;28;20190;-79
2022/08/30 05:36:14;;;;;;;14.50;13.17;;;16.60;99.90;;;;;;5038723;28;20175;-80
2022/08/30 05:38:41;;;;;;;14.60;13.07;;;16.90;99.90;;;;;;5057137;28;20308;-79
2022/08/30 05:41:07;;;;;;;37.17;34.87;;;17.20;99.90;;;;;;5055842;28;20271;-79
2022/08/30 05:43:33;;;;;;;85.33;80.50;;;17.50;99.90;;;;;;5063404;28;20191;-80
2022/08/30 05:46:07;;;;;;;56.50;53.43;;;17.70;99.90;;;;;;5053433;28;20529;-80
2022/08/30 05:48:33;;;;;;;36.90;34.87;;;18.00;99.90;;;;;;5053497;28;20292;-80
2022/08/30 05:51:09;;;;;;;49.57;46.63;;;18.30;99.90;;;;;;5057582;28;20182;-80
2022/08/30 05:53:35;;;;;;;20.10;18.53;;;18.60;99.90;;;;;;5054717;28;20549;-80
2022/08/30 05:56:04;;;;;;;14.57;13.37;;;19.00;99.90;;;;;;5054529;28;20220;-80
2022/08/30 05:58:31;;;;;;;17.40;16.20;;;19.30;99.90;;;;;;5051934;28;20854;-80
2022/08/30 06:00:57;;;;;;;16.07;14.93;;;19.60;99.90;;;;;;5061420;28;20170;-80
2022/08/30 06:03:23;;;;;;;19.35;17.85;;;20.10;99.90;;;;;;5056253;28;20231;-81
2022/08/30 06:05:48;;;;;;;56.80;53.30;;;20.20;99.90;;;;;;5058499;28;20182;-80
2022/08/30 06:08:14;;;;;;;171.10;162.50;;;20.60;99.90;;;;;;5065845;28;20702;-80
2022/08/30 06:10:40;;;;;;;362.63;343.48;;;20.90;99.90;;;;;;5053443;28;20442;-80
2022/08/30 06:13:06;;;;;;;177.55;168.05;;;21.00;99.90;;;;;;5053178;28;20182;-80
2022/08/30 06:15:32;;;;;;;118.15;111.68;;;21.40;99.90;;;;;;5054279;28;20178;-81
2022/08/30 06:17:58;;;;;;;67.65;63.88;;;21.70;99.90;;;;;;5052575;28;20214;-81
2022/08/30 06:20:24;;;;;;;39.88;37.22;;;21.90;99.90;;;;;;5053983;28;20266;-81
2022/08/30 06:22:50;;;;;;;33.00;31.13;;;22.10;99.90;;;;;;5053695;28;20179;-81
2022/08/30 06:25:16;;;;;;;18.70;17.48;;;22.20;99.90;;;;;;5053073;28;20650;-81
2022/08/30 06:27:42;;;;;;;19.05;17.73;;;22.50;99.90;;;;;;5054832;28;20264;-81
2022/08/30 06:30:09;;;;;;;13.35;11.30;;;22.60;99.90;;;;;;5058106;28;20289;-81
2022/08/30 06:32:38;;;;;;;10.05;9.23;;;22.60;99.90;;;;;;5058297;28;20189;-80
2022/08/30 06:35:06;;;;;;;10.88;9.82;;;22.80;99.90;;;;;;5058613;28;20557;-81
2022/08/30 06:37:33;;;;;;;15.15;12.20;;;23.10;99.90;;;;;;5056555;28;20206;-80
2022/08/30 06:40:01;;;;;;;29.38;27.48;;;23.40;99.90;;;;;;5059611;28;20202;-81
2022/08/30 06:42:30;;;;;;;47.83;44.97;;;23.60;99.90;;;;;;5059312;28;20174;-80
2022/08/30 06:45:01;;;;;;;49.92;47.22;;;24.00;99.90;;;;;;5056772;28;20174;-80
2022/08/30 06:47:28;;;;;;;37.65;35.28;;;24.10;99.90;;;;;;5057664;28;20174;-80
2022/08/30 06:49:54;;;;;;;22.92;21.23;;;24.30;99.90;;;;;;5055938;28;20214;-80
2022/08/30 06:52:19;;;;;;;14.27;12.82;;;24.30;99.90;;;;;;5057370;28;20182;-80
2022/08/30 06:54:45;;;;;;;10.93;8.82;;;24.50;99.90;;;;;;5057230;28;20189;-80
2022/08/30 06:57:11;;;;;;;7.72;7.10;;;24.80;99.90;;;;;;5055378;28;20179;-80
2022/08/30 06:59:38;;;;;;;9.32;8.68;;;24.90;99.90;;;;;;5067827;28;20201;-81
2022/08/30 07:02:06;;;;;;;11.90;10.85;;;25.30;99.90;;;;;;5057821;28;20185;-81
2022/08/30 07:04:33;;;;;;;17.23;16.00;;;25.30;99.90;;;;;;5055349;28;20262;-81
2022/08/30 07:06:59;;;;;;;14.27;13.05;;;25.10;99.90;;;;;;5055515;28;20178;-80
2022/08/30 07:09:25;;;;;;;14.02;12.75;;;25.10;99.90;;;;;;5057135;28;20209;-81
2022/08/30 07:11:52;;;;;;;15.40;14.18;;;25.30;99.90;;;;;;5057398;28;20647;-81
2022/08/30 07:14:19;;;;;;;14.52;13.57;;;25.40;99.90;;;;;;5065030;28;20174;-80
2022/08/30 07:16:45;;;;;;;11.55;10.60;;;25.70;99.90;;;;;;5078437;28;20174;-80
2022/08/30 07:19:11;;;;;;;9.48;8.68;;;26.20;99.90;;;;;;5065329;28;20305;-81
2022/08/30 07:21:42;;;;;;;11.52;10.50;;;26.30;99.90;;;;;;5058378;28;20274;-81
2022/08/30 07:24:09;;;;;;;13.70;12.52;;;26.40;99.90;;;;;;5058431;28;20218;-81
2022/08/30 07:26:41;;;;;;;15.75;14.65;;;26.30;99.90;;;;;;5056019;28;20183;-81
2022/08/30 07:29:09;;;;;;;14.25;13.35;;;26.30;99.90;;;;;;5054466;28;20202;-80
2022/08/30 07:31:36;;;;;;;15.23;14.13;;;26.40;99.90;;;;;;5062321;28;20278;-81
2022/08/30 07:34:06;;;;;;;15.50;14.15;;;26.30;99.90;;;;;;5064377;28;20182;-80
2022/08/30 07:36:33;;;;;;;9.50;8.75;;;26.40;99.90;;;;;;5061668;28;20269;-80
2022/08/30 07:38:59;;;;;;;9.65;8.20;;;26.70;99.90;;;;;;5053732;28;20213;-80
2022/08/30 07:41:31;;;;;;;8.48;7.88;;;26.40;99.90;;;;;;5061641;28;20182;-81
2022/08/30 07:43:57;;;;;;;9.10;7.35;;;26.60;99.90;;;;;;5058786;28;20667;-81
2022/08/30 07:46:24;;;;;;;9.30;7.88;;;26.30;99.90;;;;;;5056122;28;20174;-80
2022/08/30 07:48:50;;;;;;;14.70;13.60;;;26.10;99.90;;;;;;5055536;28;20716;-81
2022/08/30 07:51:19;;;;;;;10.05;9.15;;;26.10;99.90;;;;;;5055550;28;20205;-81
2022/08/30 07:53:46;;;;;;;9.73;7.90;;;26.60;99.90;;;;;;5056136;28;20189;-80
2022/08/30 07:56:12;;;;;;;8.23;7.53;;;26.70;99.90;;;;;;5054794;28;20666;-81
2022/08/30 07:58:38;;;;;;;12.50;11.70;;;26.60;99.90;;;;;;5053751;28;20218;-81
2022/08/30 08:01:06;;;;;;;10.43;8.95;;;26.30;99.90;;;;;;5055873;28;20185;-81
2022/08/30 08:03:32;;;;;;;10.40;9.40;;;26.60;99.90;;;;;;5055440;28;20179;-81
2022/08/30 08:06:04;;;;;;;13.00;12.13;;;26.60;99.90;;;;;;5056084;28;20182;-80
2022/08/30 08:08:30;;;;;;;11.82;10.85;;;26.50;99.90;;;;;;5053515;28;20270;-81
2022/08/30 08:10:57;;;;;;;11.18;10.23;;;26.40;99.90;;;;;;5053729;28;20255;-80
2022/08/30 08:13:23;;;;;;;8.48;7.68;;;26.80;99.90;;;;;;5055193;28;20183;-80
2022/08/30 08:15:49;;;;;;;11.18;7.55;;;27.30;99.90;;;;;;5054809;28;20564;-81
2022/08/30 08:18:15;;;;;;;8.57;7.88;;;27.30;99.90;;;;;;5053842;28;20273;-81
2022/08/30 08:20:41;;;;;;;11.93;10.90;;;26.80;99.90;;;;;;5053668;28;20213;-80
2022/08/30 08:23:07;;;;;;;11.00;10.07;;;26.70;99.90;;;;;;5055967;28;20175;-83
2022/08/30 08:25:39;;;;;;;9.93;9.23;;;26.90;99.90;;;;;;5062521;28;20171;-82
2022/08/30 08:28:05;;;;;;;9.48;8.63;;;27.30;99.90;;;;;;5054246;28;20209;-80
2022/08/30 08:30:34;;;;;;;10.25;9.40;;;27.20;99.90;;;;;;5055463;28;20269;-81
2022/08/30 08:33:00;;;;;;;10.27;9.27;;;27.00;99.90;;;;;;5055321;28;20182;-80
2022/08/30 08:35:26;;;;;;;12.00;11.13;;;26.70;99.90;;;;;;5054848;28;20182;-80
2022/08/30 08:37:52;;;;;;;12.32;11.32;;;26.70;99.90;;;;;;5053095;28;20210;-81
2022/08/30 08:40:19;;;;;;;10.15;9.35;;;27.10;99.90;;;;;;5054321;28;20195;-80
2022/08/30 08:42:58;;;;;;;12.10;11.05;;;27.20;99.90;;;;;;5055128;28;20545;-80
2022/08/30 08:45:46;;;;;;;9.55;6.53;;;27.90;99.90;;;;;;5055195;28;20564;-81
2022/08/30 08:48:30;;;;;;;7.28;6.18;;;28.40;99.90;;;;;;5056167;28;20193;-80
2022/08/30 08:53:46;;;;;;;9.00;8.15;;;28.30;99.90;;;;;;5057249;28;20182;-80
2022/08/30 08:56:17;;;;;;;9.23;8.43;;;28.50;99.90;;;;;;5055409;28;20178;-82
2022/08/30 08:58:44;;;;;;;9.10;8.20;;;28.50;99.90;;;;;;5053558;28;20309;-81
2022/08/30 09:01:14;;;;;;;9.02;8.27;;;28.90;99.90;;;;;;5055673;28;20764;-80
2022/08/30 09:03:40;;;;;;;11.80;10.77;;;29.20;99.90;;;;;;5055442;28;20325;-81
2022/08/30 09:06:27;;;;;;;13.60;12.52;;;29.60;98.50;;;;;;5059615;28;20186;-81
2022/08/30 09:08:54;;;;;;;11.13;10.43;;;29.40;98.00;;;;;;5055192;28;20228;-81
2022/08/30 09:11:24;;;;;;;13.82;12.85;;;29.10;98.50;;;;;;5055908;28;20189;-81
2022/08/30 09:13:50;;;;;;;11.95;10.95;;;29.40;98.30;;;;;;5055253;28;20189;-81
2022/08/30 09:16:44;;;;;;;14.32;13.43;;;29.40;97.80;;;;;;5056458;28;20205;-81
2022/08/30 09:19:10;;;;;;;15.98;14.77;;;29.60;97.40;;;;;;5054406;28;20291;-81
2022/08/30 09:21:37;;;;;;;16.60;15.10;;;30.00;97.30;;;;;;5056417;28;20218;-82
2022/08/30 09:24:04;;;;;;;19.40;18.05;;;30.30;96.80;;;;;;5056417;28;20186;-82
2022/08/30 09:26:34;;;;;;;27.38;25.75;;;30.60;96.20;;;;;;5061600;28;20186;-80
2022/08/30 09:29:00;;;;;;;25.23;23.63;;;30.50;94.80;;;;;;5060848;28;20438;-80
2022/08/30 09:31:27;;;;;;;39.35;37.10;;;30.40;94.90;;;;;;5063803;28;20417;-81
2022/08/30 09:34:04;;;;;;;23.70;22.40;;;29.90;94.40;;;;;;5057914;28;20186;-81
2022/08/30 09:36:39;;;;;;;28.27;26.45;;;29.80;95.10;;;;;;5055797;28;20249;-81
2022/08/30 09:39:18;;;;;;;19.17;17.90;;;30.10;94.20;;;;;;5055788;28;20224;-82
2022/08/30 09:41:48;;;;;;;23.45;22.10;;;29.90;94.70;;;;;;5055582;28;20178;-81
2022/08/30 09:44:23;;;;;;;36.33;33.95;;;30.50;94.20;;;;;;5055059;28;20178;-81
2022/08/30 09:46:54;;;;;;;49.70;46.97;;;30.70;94.10;;;;;;5055488;28;20215;-80
2022/08/30 09:49:46;;;;;;;61.03;57.67;;;31.00;93.40;;;;;;5073606;23;20211;-78
2022/08/30 09:52:50;;;;;;;44.55;41.78;;;30.70;92.70;;;;;;5029575;28;20198;-81
2022/08/30 09:55:29;;;;;;;53.28;50.38;;;30.20;93.30;;;;;;5015285;28;20270;-81
2022/08/30 09:58:33;;;;;;;53.88;50.83;;;30.40;92.50;;;;;;5012412;28;20219;-81
2022/08/30 10:01:19;;;;;;;50.63;47.90;;;30.90;91.80;;;;;;4994286;28;20212;-82
2022/08/30 10:03:54;;;;;;;32.53;30.63;;;31.50;90.90;;;;;;4997031;28;20263;-81
2022/08/30 10:06:27;;;;;;;28.48;26.77;;;31.30;89.20;;;;;;5013025;28;20539;-81
2022/08/30 10:09:00;;;;;;;13.98;13.18;;;31.80;87.90;;;;;;4996760;28;20200;-80
2022/08/30 10:11:42;;;;;;;9.95;9.07;;;31.70;85.10;;;;;;4996551;28;20552;-81
2022/08/30 10:14:57;;;;;;;11.50;10.70;;;31.60;82.80;;;;;;5019481;28;20188;-80
2022/08/30 10:17:55;;;;;;;13.02;12.15;;;31.20;83.50;;;;;;4977983;28;20189;-78
2022/08/30 10:20:34;;;;;;;9.50;8.80;;;32.00;83.80;;;;;;4997710;28;20208;-79
2022/08/30 10:23:06;;;;;;;8.32;7.72;;;32.50;80.00;;;;;;4996884;28;20626;-80
2022/08/30 10:25:36;;;;;;;11.52;10.52;;;32.50;81.70;;;;;;4997932;28;20187;-79
2022/08/30 10:28:13;;;;;;;21.05;19.80;;;32.70;81.20;;;;;;5011831;28;20216;-77
2022/08/30 10:30:46;;;;;;;30.30;28.38;;;33.00;78.10;;;;;;5012653;28;20210;-81
2022/08/30 10:33:25;;;;;;;32.28;30.38;;;32.70;77.70;;;;;;4995739;28;20307;-78
2022/08/30 10:35:57;;;;;;;45.28;42.92;;;33.00;77.90;;;;;;4996109;28;20195;-80
2022/08/30 10:38:36;;;;;;;42.17;39.60;;;33.20;75.10;;;;;;4996099;28;20212;-79
2022/08/30 10:41:27;;;;;;;52.92;50.28;;;33.90;73.00;;;;;;4997286;28;20285;-80
2022/08/30 10:44:01;;;;;;;52.25;49.45;;;33.20;76.10;;;;;;4996709;28;20192;-80
2022/08/30 10:46:56;;;;;;;18.05;16.98;;;33.50;75.60;;;;;;4994910;28;20185;-79
2022/08/30 10:49:27;;;;;;;29.77;28.08;;;33.70;70.40;;;;;;4995847;28;20226;-80
2022/08/30 10:52:11;;;;;;;48.58;46.05;;;32.90;73.50;;;;;;5011179;28;20180;-82
2022/08/30 10:54:47;;;;;;;45.45;42.88;;;33.10;73.50;;;;;;4995979;28;20180;-78
2022/08/30 10:57:13;;;;;;;46.65;44.15;;;33.10;73.40;;;;;;5010764;28;20219;-80
2022/08/30 11:00:00;;;;;;;23.40;22.02;;;33.80;72.50;;;;;;4996197;28;20247;-78
2022/08/30 11:02:43;;;;;;;24.60;23.25;;;33.80;69.50;;;;;;4996420;28;20211;-80
2022/08/30 11:05:23;;;;;;;34.10;32.15;;;34.80;68.80;;;;;;4996073;28;20244;-80
2022/08/30 11:08:09;;;;;;;67.88;64.15;;;34.40;69.10;;;;;;4997258;28;20183;-79
2022/08/30 11:10:56;;;;;;;44.90;42.10;;;34.30;67.60;;;;;;4995805;28;20216;-80
2022/08/30 11:13:30;;;;;;;140.73;133.88;;;34.80;67.30;;;;;;4994259;28;20184;-81
2022/08/30 11:16:07;;;;;;;198.38;188.63;;;35.00;66.10;;;;;;5012418;28;20234;-81
2022/08/30 11:18:45;;;;;;;184.25;175.10;;;34.70;64.90;;;;;;5018297;28;20646;-78
2022/08/30 11:21:33;;;;;;;239.60;227.65;;;34.70;65.90;;;;;;5010086;28;20228;-80
2022/08/30 11:24:03;;;;;;;253.57;240.93;;;34.90;63.70;;;;;;4997164;28;20184;-81
2022/08/30 11:26:56;;;;;;;350.85;332.38;;;35.20;62.60;;;;;;5013425;28;20211;-81
2022/08/30 11:29:33;;;;;;;333.40;315.77;;;35.20;61.80;;;;;;4996011;28;20207;-80
2022/08/30 11:32:23;;;;;;;354.25;335.50;;;35.40;60.50;;;;;;4997083;28;20191;-81
2022/08/30 11:34:58;;;;;;;354.85;336.40;;;35.50;59.80;;;;;;4997591;28;20279;-78
2022/08/30 11:37:36;;;;;;;315.52;299.50;;;35.70;58.80;;;;;;5012930;28;20218;-79
2022/08/30 11:40:21;;;;;;;303.80;288.15;;;35.70;58.80;;;;;;5013222;28;20204;-79
2022/08/30 11:42:49;;;;;;;212.70;202.25;;;36.70;57.20;;;;;;5010770;28;20219;-81
2022/08/30 11:45:21;;;;;;;154.80;146.98;;;36.90;57.00;;;;;;4998634;28;20230;-81
2022/08/30 11:47:56;;;;;;;165.18;156.98;;;37.20;55.40;;;;;;4995881;28;20645;-82
2022/08/30 11:50:26;;;;;;;120.72;114.88;;;37.10;54.10;;;;;;4996171;28;20212;-81
2022/08/30 11:53:01;;;;;;;156.60;148.80;;;36.30;55.90;;;;;;4994490;28;20195;-81
2022/08/30 11:55:43;;;;;;;209.70;198.82;;;36.40;55.30;;;;;;4995388;28;20184;-81
2022/08/30 11:58:28;;;;;;;205.70;195.38;;;36.20;56.10;;;;;;4994210;28;20208;-80
2022/08/30 12:01:16;;;;;;;167.43;159.15;;;35.80;55.50;;;;;;4993813;28;20600;-80
2022/08/30 12:03:43;;;;;;;184.45;175.40;;;36.50;55.00;;;;;;5009847;28;20184;-80
2022/08/30 12:06:11;;;;;;;150.40;142.93;;;35.90;55.60;;;;;;4995669;28;20638;-81
2022/08/30 12:08:47;;;;;;;172.88;164.38;;;35.10;55.30;;;;;;4995167;28;20195;-80
2022/08/30 12:11:12;;;;;;;147.38;139.88;;;35.10;56.00;;;;;;4996264;28;20207;-80
2022/08/30 12:13:41;;;;;;;173.18;164.73;;;35.20;55.70;;;;;;4997713;28;20187;-80
2022/08/30 12:16:15;;;;;;;219.02;207.93;;;34.70;55.70;;;;;;5007386;28;20180;-81
2022/08/30 12:18:47;;;;;;;208.27;197.48;;;34.60;58.70;;;;;;4995505;28;20247;-81
2022/08/30 12:21:24;;;;;;;237.25;225.32;;;35.10;56.00;;;;;;5011447;28;20271;-80
2022/08/30 12:23:53;;;;;;;296.73;281.25;;;34.70;56.40;;;;;;5014401;28;20180;-81
2022/08/30 12:26:24;;;;;;;301.20;285.38;;;34.10;57.70;;;;;;4995566;28;20187;-82
2022/08/30 12:29:15;;;;;;;301.17;285.73;;;34.10;57.60;;;;;;4994543;28;20263;-79
2022/08/30 12:31:44;;;;;;;283.35;268.58;;;34.20;58.10;;;;;;4994141;28;20184;-81
2022/08/30 12:34:19;;;;;;;336.77;319.20;;;34.20;57.50;;;;;;4994558;28;20649;-80
2022/08/30 12:36:52;;;;;;;310.90;294.95;;;33.50;57.90;;;;;;5010288;28;20180;-78
2022/08/30 12:39:23;;;;;;;254.02;241.45;;;33.30;58.40;;;;;;5015289;28;20559;-80
2022/08/30 12:41:49;;;;;;;260.38;247.32;;;33.00;59.10;;;;;;5013976;28;20658;-81
2022/08/30 12:44:19;;;;;;;281.08;267.00;;;33.30;58.50;;;;;;4996029;28;20276;-81